sensor_id;sensor_type;location;lat;lon;timestamp;pressure;altitude;pressure_sealevel;temperature;humidity
18275;BME280;19470;49.322;7.218;2022-11-27T00:03:52;99856.56;;;6.93;100.00
18275;BME280;19470;49.322;7.218;2022-11-27T00:06:21;99853.00;;;6.79;100.00
18275;BME280;19470;49.322;7.218;2022-11-27T00:08:48;99848.16;;;6.61;100.00
18275;BME280;19470;49.322;7.218;2022-11-27T00:11:17;99844.84;;;6.74;100.00
18275;BME280;19470;49.322;7.218;2022-11-27T00:13:44;99844.91;;;7.02;100.00
18275;BME280;19470;49.322;7.218;2022-11-27T00:16:12;99846.34;;;6.61;100.00
18275;BME280;19470;49.322;7.218;2022-11-27T00:18:39;99838.50;;;6.89;100.00
18275;BME280;19470;49.322;7.218;2022-11-27T00:21:10;99841.03;;;6.98;100.00
18275;BME280;19470;49.322;7.218;2022-11-27T00:23:36;99850.63;;;6.84;100.00
18275;BME280;19470;49.322;7.218;2022-11-27T00:26:04;99841.94;;;7.11;100.00
18275;BME280;19470;49.322;7.218;2022-11-27T00:28:31;99838.22;;;7.27;100.00
18275;BME280;19470;49.322;7.218;2022-11-27T00:30:58;99840.59;;;7.22;100.00
18275;BME280;19470;49.322;7.218;2022-11-27T00:33:25;99839.75;;;6.51;100.00
18275;BME280;19470;49.322;7.218;2022-11-27T00:35:52;99835.69;;;6.70;100.00
18275;BME280;19470;49.322;7.218;2022-11-27T00:38:20;99832.03;;;7.13;100.00
18275;BME280;19470;49.322;7.218;2022-11-27T00:40:47;99828.81;;;7.18;100.00
18275;BME280;19470;49.322;7.218;2022-11-27T00:43:13;99833.56;;;7.01;100.00
18275;BME280;19470;49.322;7.218;2022-11-27T00:45:40;99825.91;;;7.06;100.00
18275;BME280;19470;49.322;7.218;2022-11-27T00:48:07;99826.16;;;7.11;100.00
18275;BME280;19470;49.322;7.218;2022-11-27T00:50:38;99824.91;;;7.07;100.00
18275;BME280;19470;49.322;7.218;2022-11-27T00:53:05;99840.06;;;6.62;100.00
18275;BME280;19470;49.322;7.218;2022-11-27T00:55:32;99835.53;;;7.21;100.00
18275;BME280;19470;49.322;7.218;2022-11-27T00:57:59;99829.72;;;7.32;100.00
18275;BME280;19470;49.322;7.218;2022-11-27T01:00:25;99831.31;;;7.54;100.00
18275;BME280;19470;49.322;7.218;2022-11-27T01:02:52;99840.16;;;7.18;100.00
18275;BME280;19470;49.322;7.218;2022-11-27T01:05:19;99837.09;;;6.87;100.00
18275;BME280;19470;49.322;7.218;2022-11-27T01:07:45;99849.41;;;7.29;100.00
18275;BME280;19470;49.322;7.218;2022-11-27T01:10:12;99852.63;;;7.03;100.00
18275;BME280;19470;49.322;7.218;2022-11-27T01:12:39;99847.56;;;7.30;100.00
18275;BME280;19470;49.322;7.218;2022-11-27T01:15:07;99852.50;;;7.39;100.00
18275;BME280;19470;49.322;7.218;2022-11-27T01:17:34;99841.16;;;7.39;100.00
18275;BME280;19470;49.322;7.218;2022-11-27T01:20:00;99836.59;;;7.54;100.00
18275;BME280;19470;49.322;7.218;2022-11-27T01:22:27;99832.94;;;7.55;100.00
18275;BME280;19470;49.322;7.218;2022-11-27T01:24:53;99833.31;;;7.24;100.00
18275;BME280;19470;49.322;7.218;2022-11-27T01:27:20;99836.69;;;7.11;100.00
18275;BME280;19470;49.322;7.218;2022-11-27T01:29:48;99832.56;;;7.30;100.00
18275;BME280;19470;49.322;7.218;2022-11-27T01:32:14;99840.56;;;7.43;100.00
18275;BME280;19470;49.322;7.218;2022-11-27T01:34:41;99834.78;;;7.61;100.00
18275;BME280;19470;49.322;7.218;2022-11-27T01:37:07;99831.53;;;7.59;100.00
18275;BME280;19470;49.322;7.218;2022-11-27T01:39:34;99828.13;;;7.65;100.00
18275;BME280;19470;49.322;7.218;2022-11-27T01:42:00;99825.56;;;7.44;100.00
18275;BME280;19470;49.322;7.218;2022-11-27T01:44:50;99829.03;;;7.51;100.00
18275;BME280;19470;49.322;7.218;2022-11-27T01:47:30;99830.09;;;7.29;100.00
18275;BME280;19470;49.322;7.218;2022-11-27T01:50:04;99828.00;;;7.17;100.00
18275;BME280;19470;49.322;7.218;2022-11-27T01:52:34;99828.75;;;7.67;100.00
18275;BME280;19470;49.322;7.218;2022-11-27T01:55:05;99823.22;;;7.28;100.00
18275;BME280;19470;49.322;7.218;2022-11-27T01:57:39;99832.13;;;7.27;100.00
18275;BME280;19470;49.322;7.218;2022-11-27T02:00:10;99826.81;;;7.48;100.00
18275;BME280;19470;49.322;7.218;2022-11-27T02:02:38;99822.69;;;7.67;100.00
18275;BME280;19470;49.322;7.218;2022-11-27T02:05:05;99818.59;;;7.64;100.00
18275;BME280;19470;49.322;7.218;2022-11-27T02:07:32;99807.22;;;7.64;100.00
18275;BME280;19470;49.322;7.218;2022-11-27T02:09:59;99805.31;;;7.51;100.00
18275;BME280;19470;49.322;7.218;2022-11-27T02:12:28;99795.19;;;7.48;100.00
18275;BME280;19470;49.322;7.218;2022-11-27T02:15:04;99790.91;;;7.47;100.00
18275;BME280;19470;49.322;7.218;2022-11-27T02:17:40;99784.53;;;7.69;100.00
18275;BME280;19470;49.322;7.218;2022-11-27T02:20:18;99776.78;;;7.61;100.00
18275;BME280;19470;49.322;7.218;2022-11-27T02:23:01;99775.72;;;7.49;100.00
18275;BME280;19470;49.322;7.218;2022-11-27T02:25:36;99771.75;;;7.66;100.00
18275;BME280;19470;49.322;7.218;2022-11-27T02:28:22;99772.31;;;7.62;100.00
18275;BME280;19470;49.322;7.218;2022-11-27T02:30:55;99766.66;;;7.58;100.00
18275;BME280;19470;49.322;7.218;2022-11-27T02:33:24;99770.56;;;7.34;100.00
18275;BME280;19470;49.322;7.218;2022-11-27T02:35:53;99767.75;;;7.36;100.00
18275;BME280;19470;49.322;7.218;2022-11-27T02:38:26;99762.31;;;7.44;100.00
18275;BME280;19470;49.322;7.218;2022-11-27T02:41:00;99761.22;;;7.32;100.00
18275;BME280;19470;49.322;7.218;2022-11-27T02:43:33;99760.81;;;7.00;100.00
18275;BME280;19470;49.322;7.218;2022-11-27T02:46:04;99749.31;;;7.42;100.00
18275;BME280;19470;49.322;7.218;2022-11-27T02:48:34;99756.03;;;7.45;100.00
18275;BME280;19470;49.322;7.218;2022-11-27T02:51:03;99743.56;;;7.67;100.00
18275;BME280;19470;49.322;7.218;2022-11-27T02:53:32;99749.28;;;7.36;100.00
18275;BME280;19470;49.322;7.218;2022-11-27T02:56:02;99743.34;;;7.27;100.00
18275;BME280;19470;49.322;7.218;2022-11-27T02:58:31;99743.72;;;7.17;100.00
18275;BME280;19470;49.322;7.218;2022-11-27T03:00:58;99745.06;;;7.41;100.00
18275;BME280;19470;49.322;7.218;2022-11-27T03:03:33;99739.69;;;7.22;100.00
18275;BME280;19470;49.322;7.218;2022-11-27T03:06:06;99736.53;;;7.39;100.00
18275;BME280;19470;49.322;7.218;2022-11-27T03:08:37;99736.94;;;7.43;100.00
18275;BME280;19470;49.322;7.218;2022-11-27T03:11:08;99728.94;;;7.64;100.00
18275;BME280;19470;49.322;7.218;2022-11-27T03:13:37;99724.03;;;7.48;100.00
18275;BME280;19470;49.322;7.218;2022-11-27T03:16:09;99721.31;;;7.35;100.00
18275;BME280;19470;49.322;7.218;2022-11-27T03:18:41;99707.41;;;7.54;100.00
18275;BME280;19470;49.322;7.218;2022-11-27T03:21:17;99708.03;;;7.56;100.00
18275;BME280;19470;49.322;7.218;2022-11-27T03:23:48;99710.84;;;7.48;100.00
18275;BME280;19470;49.322;7.218;2022-11-27T03:26:14;99707.00;;;7.57;100.00
18275;BME280;19470;49.322;7.218;2022-11-27T03:28:42;99706.59;;;7.54;100.00
18275;BME280;19470;49.322;7.218;2022-11-27T03:31:10;99706.19;;;7.57;100.00
18275;BME280;19470;49.322;7.218;2022-11-27T03:33:37;99712.56;;;7.28;100.00
18275;BME280;19470;49.322;7.218;2022-11-27T03:36:11;99708.16;;;7.35;100.00
18275;BME280;19470;49.322;7.218;2022-11-27T03:38:38;99718.22;;;7.25;100.00
18275;BME280;19470;49.322;7.218;2022-11-27T03:41:08;99715.09;;;7.49;100.00
18275;BME280;19470;49.322;7.218;2022-11-27T03:43:42;99706.63;;;7.60;100.00
18275;BME280;19470;49.322;7.218;2022-11-27T03:46:17;99710.84;;;7.13;100.00
18275;BME280;19470;49.322;7.218;2022-11-27T03:48:55;99707.00;;;7.57;100.00
18275;BME280;19470;49.322;7.218;2022-11-27T03:51:32;99698.78;;;7.32;100.00
18275;BME280;19470;49.322;7.218;2022-11-27T03:54:04;99698.91;;;7.17;100.00
18275;BME280;19470;49.322;7.218;2022-11-27T03:56:37;99694.66;;;7.16;100.00
18275;BME280;19470;49.322;7.218;2022-11-27T03:59:09;99689.00;;;7.20;100.00
18275;BME280;19470;49.322;7.218;2022-11-27T04:01:39;99690.59;;;7.14;100.00
18275;BME280;19470;49.322;7.218;2022-11-27T04:04:06;99690.16;;;7.10;100.00
18275;BME280;19470;49.322;7.218;2022-11-27T04:06:34;99680.94;;;7.28;100.00
18275;BME280;19470;49.322;7.218;2022-11-27T04:09:00;99689.34;;;7.10;100.00
18275;BME280;19470;49.322;7.218;2022-11-27T04:11:27;99690.44;;;6.87;100.00
18275;BME280;19470;49.322;7.218;2022-11-27T04:13:53;99683.16;;;6.89;100.00
18275;BME280;19470;49.322;7.218;2022-11-27T04:16:20;99679.69;;;7.24;100.00
18275;BME280;19470;49.322;7.218;2022-11-27T04:18:46;99679.97;;;7.35;100.00
18275;BME280;19470;49.322;7.218;2022-11-27T04:21:13;99679.97;;;7.42;100.00
18275;BME280;19470;49.322;7.218;2022-11-27T04:23:42;99686.06;;;7.01;100.00
18275;BME280;19470;49.322;7.218;2022-11-27T04:26:09;99689.53;;;6.74;100.00
18275;BME280;19470;49.322;7.218;2022-11-27T04:28:35;99684.88;;;7.10;100.00
18275;BME280;19470;49.322;7.218;2022-11-27T04:31:02;99694.56;;;6.97;100.00
18275;BME280;19470;49.322;7.218;2022-11-27T04:33:28;99691.72;;;6.42;100.00
18275;BME280;19470;49.322;7.218;2022-11-27T04:35:55;99705.50;;;7.00;100.00
18275;BME280;19470;49.322;7.218;2022-11-27T04:38:22;99709.47;;;6.89;100.00
18275;BME280;19470;49.322;7.218;2022-11-27T04:40:51;99711.53;;;7.29;100.00
18275;BME280;19470;49.322;7.218;2022-11-27T04:43:18;99702.78;;;7.22;100.00
18275;BME280;19470;49.322;7.218;2022-11-27T04:45:44;99693.72;;;7.31;100.00
18275;BME280;19470;49.322;7.218;2022-11-27T04:48:11;99677.34;;;7.42;100.00
18275;BME280;19470;49.322;7.218;2022-11-27T04:50:38;99689.00;;;7.20;100.00
18275;BME280;19470;49.322;7.218;2022-11-27T04:53:04;99695.97;;;6.71;100.00
18275;BME280;19470;49.322;7.218;2022-11-27T04:55:31;99700.31;;;7.13;100.00
18275;BME280;19470;49.322;7.218;2022-11-27T04:57:59;99696.88;;;6.85;100.00
18275;BME280;19470;49.322;7.218;2022-11-27T05:00:25;99693.81;;;7.09;100.00
18275;BME280;19470;49.322;7.218;2022-11-27T05:02:52;99703.41;;;7.24;100.00
18275;BME280;19470;49.322;7.218;2022-11-27T05:05:18;99702.47;;;7.03;100.00
18275;BME280;19470;49.322;7.218;2022-11-27T05:07:45;99706.81;;;6.55;100.00
18275;BME280;19470;49.322;7.218;2022-11-27T05:10:11;99703.75;;;6.79;100.00
18275;BME280;19470;49.322;7.218;2022-11-27T05:12:38;99705.59;;;7.13;100.00
18275;BME280;19470;49.322;7.218;2022-11-27T05:15:07;99685.88;;;7.44;100.00
18275;BME280;19470;49.322;7.218;2022-11-27T05:17:34;99664.94;;;7.29;100.00
18275;BME280;19470;49.322;7.218;2022-11-27T05:20:00;99656.69;;;7.39;100.00
18275;BME280;19470;49.322;7.218;2022-11-27T05:22:27;99648.13;;;7.37;100.00
18275;BME280;19470;49.322;7.218;2022-11-27T05:24:54;99653.28;;;7.10;100.00
18275;BME280;19470;49.322;7.218;2022-11-27T05:27:20;99674.34;;;6.76;100.00
18275;BME280;19470;49.322;7.218;2022-11-27T05:29:47;99677.06;;;6.33;100.00
18275;BME280;19470;49.322;7.218;2022-11-27T05:32:14;99664.94;;;6.95;100.00
18275;BME280;19470;49.322;7.218;2022-11-27T05:34:41;99643.41;;;7.19;100.00
18275;BME280;19470;49.322;7.218;2022-11-27T05:37:08;99647.69;;;7.27;100.00
18275;BME280;19470;49.322;7.218;2022-11-27T05:39:37;99645.72;;;6.94;100.00
18275;BME280;19470;49.322;7.218;2022-11-27T05:42:03;99645.38;;;6.76;100.00
18275;BME280;19470;49.322;7.218;2022-11-27T05:44:30;99649.47;;;7.20;100.00
18275;BME280;19470;49.322;7.218;2022-11-27T05:46:56;99637.63;;;7.43;100.00
18275;BME280;19470;49.322;7.218;2022-11-27T05:49:24;99634.81;;;7.45;100.00
18275;BME280;19470;49.322;7.218;2022-11-27T05:51:51;99619.38;;;7.42;100.00
18275;BME280;19470;49.322;7.218;2022-11-27T05:54:17;99617.75;;;7.41;100.00
18275;BME280;19470;49.322;7.218;2022-11-27T05:56:44;99633.25;;;6.75;100.00
18275;BME280;19470;49.322;7.218;2022-11-27T05:59:11;99631.56;;;7.02;100.00
18275;BME280;19470;49.322;7.218;2022-11-27T06:01:37;99637.00;;;6.59;100.00
18275;BME280;19470;49.322;7.218;2022-11-27T06:04:04;99633.81;;;7.05;100.00
18275;BME280;19470;49.322;7.218;2022-11-27T06:06:32;99647.50;;;6.87;100.00
18275;BME280;19470;49.322;7.218;2022-11-27T06:08:59;99639.44;;;6.95;100.00
18275;BME280;19470;49.322;7.218;2022-11-27T06:11:26;99632.91;;;7.26;100.00
18275;BME280;19470;49.322;7.218;2022-11-27T06:13:52;99622.91;;;7.76;100.00
18275;BME280;19470;49.322;7.218;2022-11-27T06:16:21;99612.47;;;7.34;100.00
18275;BME280;19470;49.322;7.218;2022-11-27T06:18:48;99608.06;;;7.48;100.00
18275;BME280;19470;49.322;7.218;2022-11-27T06:21:15;99616.47;;;7.24;100.00
18275;BME280;19470;49.322;7.218;2022-11-27T06:23:43;99602.63;;;7.15;100.00
18275;BME280;19470;49.322;7.218;2022-11-27T06:26:11;99607.28;;;7.06;100.00
18275;BME280;19470;49.322;7.218;2022-11-27T06:28:39;99596.88;;;7.39;100.00
18275;BME280;19470;49.322;7.218;2022-11-27T06:31:07;99601.13;;;7.47;100.00
18275;BME280;19470;49.322;7.218;2022-11-27T06:33:33;99604.66;;;7.06;100.00
18275;BME280;19470;49.322;7.218;2022-11-27T06:36:00;99602.91;;;7.33;100.00
18275;BME280;19470;49.322;7.218;2022-11-27T06:38:26;99599.97;;;7.69;100.00
18275;BME280;19470;49.322;7.218;2022-11-27T06:40:54;99600.56;;;7.58;100.00
18275;BME280;19470;49.322;7.218;2022-11-27T06:43:21;99601.84;;;7.14;100.00
18275;BME280;19470;49.322;7.218;2022-11-27T06:45:54;99600.41;;;7.12;100.00
18275;BME280;19470;49.322;7.218;2022-11-27T06:48:21;99590.19;;;7.43;100.00
18275;BME280;19470;49.322;7.218;2022-11-27T06:50:47;99587.56;;;7.57;100.00
18275;BME280;19470;49.322;7.218;2022-11-27T06:53:14;99594.47;;;7.45;100.00
18275;BME280;19470;49.322;7.218;2022-11-27T06:55:40;99606.41;;;7.47;100.00
18275;BME280;19470;49.322;7.218;2022-11-27T06:58:08;99618.94;;;6.90;100.00
18275;BME280;19470;49.322;7.218;2022-11-27T07:00:35;99620.69;;;7.18;100.00
18275;BME280;19470;49.322;7.218;2022-11-27T07:03:01;99607.22;;;7.41;100.00
18275;BME280;19470;49.322;7.218;2022-11-27T07:05:28;99602.91;;;7.20;100.00
18275;BME280;19470;49.322;7.218;2022-11-27T07:07:55;99601.84;;;7.14;100.00
18275;BME280;19470;49.322;7.218;2022-11-27T07:10:21;99597.75;;;7.05;100.00
18275;BME280;19470;49.322;7.218;2022-11-27T07:12:48;99591.13;;;7.23;100.00
18275;BME280;19470;49.322;7.218;2022-11-27T07:15:16;99577.75;;;7.17;100.00
18275;BME280;19470;49.322;7.218;2022-11-27T07:17:42;99564.44;;;7.39;100.00
18275;BME280;19470;49.322;7.218;2022-11-27T07:20:09;99564.63;;;7.37;100.00
18275;BME280;19470;49.322;7.218;2022-11-27T07:22:36;99580.47;;;6.96;100.00
18275;BME280;19470;49.322;7.218;2022-11-27T07:25:03;99592.88;;;7.02;100.00
18275;BME280;19470;49.322;7.218;2022-11-27T07:27:30;99590.91;;;6.70;100.00
18275;BME280;19470;49.322;7.218;2022-11-27T07:29:56;99589.56;;;6.87;100.00
18275;BME280;19470;49.322;7.218;2022-11-27T07:32:24;99571.13;;;7.35;100.00
18275;BME280;19470;49.322;7.218;2022-11-27T07:34:51;99565.47;;;7.51;100.00
18275;BME280;19470;49.322;7.218;2022-11-27T07:37:17;99537.50;;;7.50;100.00
18275;BME280;19470;49.322;7.218;2022-11-27T07:39:43;99528.41;;;7.73;100.00
18275;BME280;19470;49.322;7.218;2022-11-27T07:42:10;99539.06;;;7.25;100.00
18275;BME280;19470;49.322;7.218;2022-11-27T07:44:36;99555.31;;;7.35;100.00
18275;BME280;19470;49.322;7.218;2022-11-27T07:47:03;99540.72;;;7.52;100.00
18275;BME280;19470;49.322;7.218;2022-11-27T07:49:31;99559.03;;;7.67;100.00
18275;BME280;19470;49.322;7.218;2022-11-27T07:51:57;99554.38;;;7.96;100.00
18275;BME280;19470;49.322;7.218;2022-11-27T07:54:24;99560.84;;;7.93;100.00
18275;BME280;19470;49.322;7.218;2022-11-27T07:56:50;99565.13;;;7.87;100.00
18275;BME280;19470;49.322;7.218;2022-11-27T07:59:17;99567.16;;;8.05;100.00
18275;BME280;19470;49.322;7.218;2022-11-27T08:01:43;99559.84;;;8.07;100.00
18275;BME280;19470;49.322;7.218;2022-11-27T08:04:10;99562.47;;;7.67;100.00
18275;BME280;19470;49.322;7.218;2022-11-27T08:06:38;99562.88;;;7.64;100.00
18275;BME280;19470;49.322;7.218;2022-11-27T08:09:04;99568.69;;;7.40;100.00
18275;BME280;19470;49.322;7.218;2022-11-27T08:11:32;99563.34;;;7.13;100.00
18275;BME280;19470;49.322;7.218;2022-11-27T08:14:00;99567.38;;;7.09;100.00
18275;BME280;19470;49.322;7.218;2022-11-27T08:16:28;99570.72;;;6.90;100.00
18275;BME280;19470;49.322;7.218;2022-11-27T08:18:55;99549.63;;;7.38;100.00
18275;BME280;19470;49.322;7.218;2022-11-27T08:21:22;99561.47;;;7.68;100.00
18275;BME280;19470;49.322;7.218;2022-11-27T08:23:50;99553.94;;;7.79;100.00
18275;BME280;19470;49.322;7.218;2022-11-27T08:26:17;99550.28;;;7.66;100.00
18275;BME280;19470;49.322;7.218;2022-11-27T08:28:45;99549.28;;;8.20;100.00
18275;BME280;19470;49.322;7.218;2022-11-27T08:31:13;99540.75;;;8.18;100.00
18275;BME280;19470;49.322;7.218;2022-11-27T08:33:40;99537.13;;;7.93;100.00
18275;BME280;19470;49.322;7.218;2022-11-27T08:36:07;99532.25;;;8.16;100.00
18275;BME280;19470;49.322;7.218;2022-11-27T08:38:34;99509.09;;;8.25;100.00
18275;BME280;19470;49.322;7.218;2022-11-27T08:41:03;99501.81;;;7.94;100.00
18275;BME280;19470;49.322;7.218;2022-11-27T08:43:31;99498.31;;;8.27;100.00
18275;BME280;19470;49.322;7.218;2022-11-27T08:45:58;99490.81;;;8.37;100.00
18275;BME280;19470;49.322;7.218;2022-11-27T08:48:25;99488.81;;;8.19;100.00
18275;BME280;19470;49.322;7.218;2022-11-27T08:50:52;99489.44;;;8.01;100.00
18275;BME280;19470;49.322;7.218;2022-11-27T08:53:19;99478.84;;;8.21;100.00
18275;BME280;19470;49.322;7.218;2022-11-27T08:55:46;99478.84;;;8.21;100.00
18275;BME280;19470;49.322;7.218;2022-11-27T08:58:14;99476.25;;;8.14;100.00
18275;BME280;19470;49.322;7.218;2022-11-27T09:00:40;99475.03;;;8.10;100.00
18275;BME280;19470;49.322;7.218;2022-11-27T09:03:09;99491.63;;;8.17;100.00
18275;BME280;19470;49.322;7.218;2022-11-27T09:05:40;99490.88;;;7.84;100.00
18275;BME280;19470;49.322;7.218;2022-11-27T09:08:06;99499.97;;;7.94;100.00
18275;BME280;19470;49.322;7.218;2022-11-27T09:10:33;99505.47;;;7.73;100.00
18275;BME280;19470;49.322;7.218;2022-11-27T09:12:59;99505.06;;;8.03;100.00
18275;BME280;19470;49.322;7.218;2022-11-27T09:15:27;99503.84;;;7.99;100.00
18275;BME280;19470;49.322;7.218;2022-11-27T09:17:54;99519.06;;;7.63;100.00
18275;BME280;19470;49.322;7.218;2022-11-27T09:20:20;99507.09;;;7.81;100.00
18275;BME280;19470;49.322;7.218;2022-11-27T09:22:47;99509.91;;;8.12;100.00
18275;BME280;19470;49.322;7.218;2022-11-27T09:25:13;99510.06;;;8.51;100.00
18275;BME280;19470;49.322;7.218;2022-11-27T09:27:40;99500.19;;;8.19;100.00
18275;BME280;19470;49.322;7.218;2022-11-27T09:30:07;99508.84;;;8.53;100.00
18275;BME280;19470;49.322;7.218;2022-11-27T09:32:35;99514.91;;;8.60;100.00
18275;BME280;19470;49.322;7.218;2022-11-27T09:35:02;99529.41;;;7.98;100.00
18275;BME280;19470;49.322;7.218;2022-11-27T09:37:29;99538.31;;;8.43;100.00
18275;BME280;19470;49.322;7.218;2022-11-27T09:39:55;99535.09;;;7.68;100.00
18275;BME280;19470;49.322;7.218;2022-11-27T09:42:34;99525.78;;;7.86;100.00
18275;BME280;19470;49.322;7.218;2022-11-27T09:45:02;99517.63;;;7.94;100.00
18275;BME280;19470;49.322;7.218;2022-11-27T09:47:37;99513.56;;;8.25;100.00
18275;BME280;19470;49.322;7.218;2022-11-27T09:50:11;99502.91;;;8.64;100.00
18275;BME280;19470;49.322;7.218;2022-11-27T09:52:40;99494.53;;;8.81;100.00
18275;BME280;19470;49.322;7.218;2022-11-27T09:55:13;99479.44;;;8.94;100.00
18275;BME280;19470;49.322;7.218;2022-11-27T09:57:40;99465.38;;;9.01;100.00
18275;BME280;19470;49.322;7.218;2022-11-27T10:00:13;99453.13;;;9.13;100.00
18275;BME280;19470;49.322;7.218;2022-11-27T10:02:41;99447.19;;;8.79;100.00
18275;BME280;19470;49.322;7.218;2022-11-27T10:05:13;99448.53;;;9.27;100.00
18275;BME280;19470;49.322;7.218;2022-11-27T10:07:53;99436.19;;;9.45;100.00
18275;BME280;19470;49.322;7.218;2022-11-27T10:10:35;99436.19;;;9.45;100.00
18275;BME280;19470;49.322;7.218;2022-11-27T10:13:13;99442.19;;;9.34;100.00
18275;BME280;19470;49.322;7.218;2022-11-27T10:15:47;99437.06;;;9.14;100.00
18275;BME280;19470;49.322;7.218;2022-11-27T10:18:27;99433.00;;;8.74;100.00
18275;BME280;19470;49.322;7.218;2022-11-27T10:20:57;99429.19;;;9.33;100.00
18275;BME280;19470;49.322;7.218;2022-11-27T10:23:36;99429.44;;;9.56;100.00
18275;BME280;19470;49.322;7.218;2022-11-27T10:26:11;99426.16;;;9.54;100.00
18275;BME280;19470;49.322;7.218;2022-11-27T10:28:46;99431.47;;;9.54;100.00
18275;BME280;19470;49.322;7.218;2022-11-27T10:31:19;99420.25;;;9.34;100.00
18275;BME280;19470;49.322;7.218;2022-11-27T10:33:50;99422.34;;;9.50;100.00
18275;BME280;19470;49.322;7.218;2022-11-27T10:36:26;99411.44;;;9.40;100.00
18275;BME280;19470;49.322;7.218;2022-11-27T10:38:55;99417.84;;;9.76;100.00
18275;BME280;19470;49.322;7.218;2022-11-27T10:41:27;99410.69;;;9.33;100.00
18275;BME280;19470;49.322;7.218;2022-11-27T10:43:58;99412.91;;;9.61;100.00
18275;BME280;19470;49.322;7.218;2022-11-27T10:46:28;99417.03;;;9.00;100.00
18275;BME280;19470;49.322;7.218;2022-11-27T10:48:57;99429.47;;;8.41;100.00
18275;BME280;19470;49.322;7.218;2022-11-27T10:51:29;99416.94;;;9.13;100.00
18275;BME280;19470;49.322;7.218;2022-11-27T10:53:57;99406.31;;;9.20;100.00
18275;BME280;19470;49.322;7.218;2022-11-27T10:56:45;99396.13;;;9.48;100.00
18275;BME280;19470;49.322;7.218;2022-11-27T10:59:15;99378.47;;;9.86;100.00
18275;BME280;19470;49.322;7.218;2022-11-27T11:01:44;99386.13;;;10.12;100.00
18275;BME280;19470;49.322;7.218;2022-11-27T11:04:14;99382.91;;;10.29;100.00
18275;BME280;19470;49.322;7.218;2022-11-27T11:06:43;99383.78;;;10.22;100.00
18275;BME280;19470;49.322;7.218;2022-11-27T11:09:15;99382.53;;;10.25;100.00
18275;BME280;19470;49.322;7.218;2022-11-27T11:11:42;99380.34;;;10.70;100.00
18275;BME280;19470;49.322;7.218;2022-11-27T11:14:17;99376.28;;;10.38;100.00
18275;BME280;19470;49.322;7.218;2022-11-27T11:16:44;99371.63;;;10.52;100.00
18275;BME280;19470;49.322;7.218;2022-11-27T11:19:23;99367.16;;;10.82;100.00
18275;BME280;19470;49.322;7.218;2022-11-27T11:21:50;99373.25;;;10.83;100.00
18275;BME280;19470;49.322;7.218;2022-11-27T11:24:23;99355.00;;;11.28;100.00
18275;BME280;19470;49.322;7.218;2022-11-27T11:26:53;99338.06;;;11.17;100.00
18275;BME280;19470;49.322;7.218;2022-11-27T11:29:32;99327.22;;;11.07;100.00
18275;BME280;19470;49.322;7.218;2022-11-27T11:32:05;99328.94;;;11.60;100.00
18275;BME280;19470;49.322;7.218;2022-11-27T11:34:35;99336.00;;;10.17;100.00
18275;BME280;19470;49.322;7.218;2022-11-27T11:37:13;99317.50;;;10.78;100.00
18275;BME280;19470;49.322;7.218;2022-11-27T11:39:45;99313.03;;;11.02;100.00
18275;BME280;19470;49.322;7.218;2022-11-27T11:42:19;99319.84;;;10.56;100.00
18275;BME280;19470;49.322;7.218;2022-11-27T11:44:49;99303.00;;;10.92;100.00
18275;BME280;19470;49.322;7.218;2022-11-27T11:47:17;99288.72;;;11.16;100.00
18275;BME280;19470;49.322;7.218;2022-11-27T11:49:45;99292.97;;;11.17;100.00
18275;BME280;19470;49.322;7.218;2022-11-27T11:52:19;99294.47;;;11.13;100.00
18275;BME280;19470;49.322;7.218;2022-11-27T11:54:58;99282.28;;;11.12;100.00
18275;BME280;19470;49.322;7.218;2022-11-27T11:57:56;99294.16;;;11.21;100.00
18275;BME280;19470;49.322;7.218;2022-11-27T12:00:33;99284.56;;;11.44;100.00
18275;BME280;19470;49.322;7.218;2022-11-27T12:03:17;99272.78;;;11.63;100.00
18275;BME280;19470;49.322;7.218;2022-11-27T12:06:01;99263.94;;;11.98;100.00
18275;BME280;19470;49.322;7.218;2022-11-27T12:08:41;99267.72;;;11.50;100.00
18275;BME280;19470;49.322;7.218;2022-11-27T12:11:14;99267.69;;;11.73;100.00
18275;BME280;19470;49.322;7.218;2022-11-27T12:13:51;99259.81;;;12.64;100.00
18275;BME280;19470;49.322;7.218;2022-11-27T12:16:25;99258.75;;;12.65;97.71
18275;BME280;19470;49.322;7.218;2022-11-27T12:19:06;99247.94;;;13.39;90.71
18275;BME280;19470;49.322;7.218;2022-11-27T12:21:48;99246.66;;;13.86;88.96
18275;BME280;19470;49.322;7.218;2022-11-27T12:24:28;99241.16;;;14.19;85.17
18275;BME280;19470;49.322;7.218;2022-11-27T12:27:10;99250.72;;;13.11;92.54
18275;BME280;19470;49.322;7.218;2022-11-27T12:29:50;99237.22;;;14.00;87.24
18275;BME280;19470;49.322;7.218;2022-11-27T12:32:30;99218.47;;;14.44;85.08
18275;BME280;19470;49.322;7.218;2022-11-27T12:35:14;99230.38;;;13.38;90.12
18275;BME280;19470;49.322;7.218;2022-11-27T12:37:51;99231.81;;;12.11;95.60
18275;BME280;19470;49.322;7.218;2022-11-27T12:40:34;99221.25;;;12.45;98.02
18275;BME280;19470;49.322;7.218;2022-11-27T12:43:11;99232.19;;;12.65;94.43
18275;BME280;19470;49.322;7.218;2022-11-27T12:45:44;99218.03;;;12.43;95.67
18275;BME280;19470;49.322;7.218;2022-11-27T12:48:16;99210.16;;;12.48;96.74
18275;BME280;19470;49.322;7.218;2022-11-27T12:50:47;99208.84;;;12.34;98.32
18275;BME280;19470;49.322;7.218;2022-11-27T12:53:20;99197.63;;;12.32;97.37
18275;BME280;19470;49.322;7.218;2022-11-27T12:55:57;99193.50;;;12.07;100.00
18275;BME280;19470;49.322;7.218;2022-11-27T12:58:29;99190.34;;;11.93;100.00
18275;BME280;19470;49.322;7.218;2022-11-27T13:01:02;99187.53;;;11.60;100.00
18275;BME280;19470;49.322;7.218;2022-11-27T13:03:38;99182.09;;;11.66;100.00
18275;BME280;19470;49.322;7.218;2022-11-27T13:06:10;99169.25;;;11.87;100.00
18275;BME280;19470;49.322;7.218;2022-11-27T13:08:46;99170.41;;;12.08;98.64
18275;BME280;19470;49.322;7.218;2022-11-27T13:11:16;99161.34;;;12.20;99.76
18275;BME280;19470;49.322;7.218;2022-11-27T13:13:47;99159.81;;;11.39;100.00
18275;BME280;19470;49.322;7.218;2022-11-27T13:16:20;99160.81;;;11.90;100.00